Time;durP1;ratioP1;P1;durP2;ratioP2;P2;SDS_P1;SDS_P2;PMS_P1;PMS_P2;Temp;Humidity;BMP_temperature;BMP_pressure;BME280_temperature;BME280_humidity;BME280_pressure;Samples;Min_cycle;Max_cycle;Signal;HPM_P1;HPM_P2
2023/01/29 00:02:19;;;;;;;0.20;0.20;;;;;;;;;;7379225;19;20242;-68
2023/01/29 00:04:48;;;;;;;0.10;0.10;;;;;;;;;;7379184;19;20160;-67
2023/01/29 00:07:16;;;;;;;0.20;0.20;;;;;;;;;;7383475;19;20149;-67
2023/01/29 00:09:45;;;;;;;0.10;0.10;;;;;;;;;;7378429;19;20181;-67
2023/01/29 00:12:14;;;;;;;0.10;0.10;;;;;;;;;;7382650;19;20166;-67
2023/01/29 00:14:43;;;;;;;0.20;0.20;;;;;;;;;;7379713;19;20141;-67
2023/01/29 00:17:12;;;;;;;0.20;0.20;;;;;;;;;;7381017;19;20157;-67
2023/01/29 00:19:44;;;;;;;0.20;0.20;;;;;;;;;;7379273;19;20187;-67
2023/01/29 00:22:13;;;;;;;0.10;0.10;;;;;;;;;;7381239;19;20137;-67
2023/01/29 00:24:43;;;;;;;0.10;0.10;;;;;;;;;;7379896;19;20144;-67
2023/01/29 00:27:13;;;;;;;0.10;0.10;;;;;;;;;;7381185;19;20145;-68
2023/01/29 00:29:42;;;;;;;0.10;0.10;;;;;;;;;;7379322;19;20180;-67
2023/01/29 00:32:11;;;;;;;0.10;0.10;;;;;;;;;;7377078;19;20164;-67
2023/01/29 00:34:45;;;;;;;0.10;0.10;;;;;;;;;;7375323;19;20232;-67
2023/01/29 00:37:14;;;;;;;0.10;0.10;;;;;;;;;;7375821;19;20148;-67
2023/01/29 00:39:43;;;;;;;0.10;0.10;;;;;;;;;;7377807;19;20201;-68
2023/01/29 00:45:01;;;;;;;0.10;0.10;;;;;;;;;;7379641;19;20144;-68
2023/01/29 00:47:33;;;;;;;0.10;0.10;;;;;;;;;;7379632;19;20152;-68
2023/01/29 00:50:07;;;;;;;0.15;0.15;;;;;;;;;;7376912;19;20239;-68
2023/01/29 00:52:35;;;;;;;0.13;0.13;;;;;;;;;;7378352;19;20200;-67
2023/01/29 00:55:06;;;;;;;0.10;0.10;;;;;;;;;;7375157;19;20145;-67
2023/01/29 00:57:35;;;;;;;0.10;0.10;;;;;;;;;;7377830;19;20156;-67
2023/01/29 01:00:05;;;;;;;0.10;0.10;;;;;;;;;;7378259;19;20211;-68
2023/01/29 01:05:19;;;;;;;0.10;0.10;;;;;;;;;;7380274;19;20618;-68
2023/01/29 01:07:48;;;;;;;0.20;0.20;;;;;;;;;;7384242;19;20220;-68
2023/01/29 01:10:23;;;;;;;0.10;0.10;;;;;;;;;;7377991;19;20190;-68
2023/01/29 01:12:53;;;;;;;0.10;0.10;;;;;;;;;;7380652;19;20140;-67
2023/01/29 01:15:22;;;;;;;0.20;0.20;;;;;;;;;;7377766;19;20264;-68
2023/01/29 01:17:54;;;;;;;0.10;0.10;;;;;;;;;;7379213;19;20688;-68
2023/01/29 01:20:26;;;;;;;0.20;0.20;;;;;;;;;;7377314;19;20176;-68
2023/01/29 01:22:56;;;;;;;0.20;0.20;;;;;;;;;;7379924;19;20147;-67
2023/01/29 01:25:25;;;;;;;0.10;0.10;;;;;;;;;;7380706;19;20164;-68
2023/01/29 01:27:54;;;;;;;0.15;0.15;;;;;;;;;;7377790;19;20152;-68
2023/01/29 01:30:23;;;;;;;0.20;0.20;;;;;;;;;;7375224;19;20665;-68
2023/01/29 01:32:53;;;;;;;0.10;0.10;;;;;;;;;;7376635;19;20186;-68
2023/01/29 01:35:21;;;;;;;0.10;0.10;;;;;;;;;;7379360;19;20136;-67
2023/01/29 01:37:53;;;;;;;0.10;0.10;;;;;;;;;;7378873;19;20158;-68
2023/01/29 01:40:23;;;;;;;0.10;0.10;;;;;;;;;;7375030;19;20180;-68
2023/01/29 01:42:53;;;;;;;0.10;0.10;;;;;;;;;;7379821;19;20148;-68
2023/01/29 01:45:24;;;;;;;0.20;0.20;;;;;;;;;;7379397;19;20133;-68
2023/01/29 01:47:54;;;;;;;0.10;0.10;;;;;;;;;;7380212;19;20148;-67
2023/01/29 01:50:24;;;;;;;0.10;0.10;;;;;;;;;;7367463;19;20189;-68
2023/01/29 01:52:58;;;;;;;0.10;0.10;;;;;;;;;;7380638;19;20137;-68
2023/01/29 01:55:29;;;;;;;0.15;0.15;;;;;;;;;;7374516;19;20160;-68
2023/01/29 01:58:04;;;;;;;0.10;0.10;;;;;;;;;;7375535;19;20168;-67
2023/01/29 02:00:33;;;;;;;0.10;0.10;;;;;;;;;;7373381;19;20251;-68
2023/01/29 02:11:13;;;;;;;0.10;0.10;;;;;;;;;;7381234;19;20188;-68
2023/01/29 02:13:44;;;;;;;0.10;0.10;;;;;;;;;;7387478;19;20453;-68
2023/01/29 02:16:13;;;;;;;0.10;0.10;;;;;;;;;;7382678;19;20137;-68
2023/01/29 02:18:41;;;;;;;0.10;0.10;;;;;;;;;;7386193;19;20133;-68
2023/01/29 02:21:23;;;;;;;0.10;0.10;;;;;;;;;;7383648;19;20168;-68
2023/01/29 02:24:18;;;;;;;0.20;0.20;;;;;;;;;;7387148;19;20137;-68
2023/01/29 02:26:52;;;;;;;0.10;0.10;;;;;;;;;;7386323;19;20274;-68
2023/01/29 02:29:26;;;;;;;0.10;0.10;;;;;;;;;;7382721;19;20225;-68
2023/01/29 02:32:02;;;;;;;0.20;0.20;;;;;;;;;;7384083;19;20173;-68
2023/01/29 02:37:20;;;;;;;0.10;0.10;;;;;;;;;;7384857;19;20185;-68
2023/01/29 02:39:54;;;;;;;0.10;0.10;;;;;;;;;;7382676;19;20201;-68
2023/01/29 02:42:27;;;;;;;0.20;0.20;;;;;;;;;;7384395;19;20177;-68
2023/01/29 02:45:01;;;;;;;0.10;0.10;;;;;;;;;;7381397;19;20149;-68
2023/01/29 02:47:32;;;;;;;0.10;0.10;;;;;;;;;;7385078;19;20156;-68
2023/01/29 02:50:03;;;;;;;0.10;0.10;;;;;;;;;;7379874;19;20193;-68
2023/01/29 02:52:36;;;;;;;0.10;0.10;;;;;;;;;;7383985;19;20148;-68
2023/01/29 02:55:09;;;;;;;0.10;0.10;;;;;;;;;;7381561;19;20647;-68
2023/01/29 02:57:39;;;;;;;0.20;0.20;;;;;;;;;;7385711;19;20163;-68
2023/01/29 03:00:14;;;;;;;0.10;0.10;;;;;;;;;;7379043;19;20177;-67
2023/01/29 03:02:45;;;;;;;0.08;0.08;;;;;;;;;;7377894;19;20808;-68
2023/01/29 03:05:17;;;;;;;0.10;0.10;;;;;;;;;;7382057;19;20148;-67
2023/01/29 03:07:51;;;;;;;0.10;0.10;;;;;;;;;;7384000;19;20571;-68
2023/01/29 03:10:41;;;;;;;0.20;0.20;;;;;;;;;;7381215;19;21061;-68
2023/01/29 03:13:15;;;;;;;0.10;0.10;;;;;;;;;;7381146;19;21446;-68
2023/01/29 03:15:51;;;;;;;0.10;0.10;;;;;;;;;;7380545;19;20638;-67
2023/01/29 03:18:31;;;;;;;0.10;0.10;;;;;;;;;;7380581;19;20631;-67
2023/01/29 03:21:48;;;;;;;0.10;0.10;;;;;;;;;;7378150;19;20194;-68
2023/01/29 03:32:06;;;;;;;0.10;0.10;;;;;;;;;;7384127;19;20611;-68
2023/01/29 03:34:42;;;;;;;0.10;0.10;;;;;;;;;;7380822;19;20626;-68
2023/01/29 03:37:14;;;;;;;0.10;0.10;;;;;;;;;;7382353;19;20583;-68
2023/01/29 03:39:43;;;;;;;0.10;0.10;;;;;;;;;;7379625;19;20210;-68
2023/01/29 03:42:15;;;;;;;0.10;0.10;;;;;;;;;;7380866;19;20157;-68
2023/01/29 03:44:48;;;;;;;0.10;0.10;;;;;;;;;;7379105;19;20167;-68
2023/01/29 03:47:29;;;;;;;0.10;0.10;;;;;;;;;;7380153;19;20159;-68
2023/01/29 03:50:02;;;;;;;0.10;0.10;;;;;;;;;;7376735;19;20205;-68
2023/01/29 03:52:39;;;;;;;0.10;0.10;;;;;;;;;;7381528;19;20682;-68
2023/01/29 03:55:13;;;;;;;0.10;0.10;;;;;;;;;;7379910;19;20638;-68
2023/01/29 03:57:44;;;;;;;0.20;0.20;;;;;;;;;;7381801;19;20699;-68
2023/01/29 04:00:20;;;;;;;0.10;0.10;;;;;;;;;;7379259;19;20205;-68
2023/01/29 04:03:06;;;;;;;0.10;0.10;;;;;;;;;;7378080;19;20627;-68
2023/01/29 04:05:38;;;;;;;0.10;0.10;;;;;;;;;;7380851;19;20614;-68
2023/01/29 04:08:19;;;;;;;0.10;0.10;;;;;;;;;;7379609;19;20149;-68
2023/01/29 04:10:50;;;;;;;0.10;0.10;;;;;;;;;;7379403;19;20650;-68
2023/01/29 04:13:20;;;;;;;0.10;0.10;;;;;;;;;;7380051;19;20156;-68
2023/01/29 04:15:53;;;;;;;0.10;0.10;;;;;;;;;;7379654;19;20157;-68
2023/01/29 04:18:35;;;;;;;0.10;0.10;;;;;;;;;;7380000;19;20157;-68
2023/01/29 04:21:08;;;;;;;0.10;0.10;;;;;;;;;;7375928;19;20212;-68
2023/01/29 04:23:38;;;;;;;0.13;0.13;;;;;;;;;;7379115;19;20161;-68
2023/01/29 04:26:17;;;;;;;0.10;0.10;;;;;;;;;;7379499;19;20152;-68
2023/01/29 04:28:52;;;;;;;0.20;0.20;;;;;;;;;;7380480;19;20152;-68
2023/01/29 04:31:25;;;;;;;0.10;0.10;;;;;;;;;;7379760;19;20693;-68
2023/01/29 04:34:02;;;;;;;0.10;0.10;;;;;;;;;;7380783;19;20137;-68
2023/01/29 04:36:36;;;;;;;0.10;0.10;;;;;;;;;;7378550;19;20136;-68
2023/01/29 04:39:10;;;;;;;0.10;0.10;;;;;;;;;;7379480;19;20152;-68
2023/01/29 04:41:42;;;;;;;0.10;0.10;;;;;;;;;;7380719;19;20137;-68
2023/01/29 04:44:18;;;;;;;0.10;0.10;;;;;;;;;;7379492;19;20137;-68
2023/01/29 04:46:50;;;;;;;0.10;0.10;;;;;;;;;;7381625;19;20136;-67
2023/01/29 04:49:27;;;;;;;0.10;0.10;;;;;;;;;;7379277;19;20156;-68
2023/01/29 04:52:01;;;;;;;0.20;0.20;;;;;;;;;;7380637;19;20144;-68
2023/01/29 04:54:33;;;;;;;0.10;0.10;;;;;;;;;;7377589;19;20153;-68
2023/01/29 04:57:07;;;;;;;0.10;0.10;;;;;;;;;;7375841;19;20631;-68
2023/01/29 04:59:38;;;;;;;0.10;0.10;;;;;;;;;;7379248;19;20195;-68
2023/01/29 05:02:10;;;;;;;0.10;0.10;;;;;;;;;;7377951;19;20768;-68
2023/01/29 05:04:43;;;;;;;0.10;0.10;;;;;;;;;;7377663;19;20148;-68
2023/01/29 05:07:14;;;;;;;0.10;0.10;;;;;;;;;;7380885;19;20147;-69
2023/01/29 05:09:44;;;;;;;0.10;0.10;;;;;;;;;;7377561;19;20180;-68
2023/01/29 05:12:15;;;;;;;0.10;0.10;;;;;;;;;;7376193;19;20173;-67
2023/01/29 05:14:45;;;;;;;0.10;0.10;;;;;;;;;;7375771;19;20148;-68
2023/01/29 05:17:16;;;;;;;0.10;0.10;;;;;;;;;;7376584;19;20136;-68
2023/01/29 05:19:48;;;;;;;0.10;0.10;;;;;;;;;;7376952;19;20216;-67
2023/01/29 05:22:21;;;;;;;0.10;0.10;;;;;;;;;;7377307;19;20638;-68
2023/01/29 05:24:50;;;;;;;0.10;0.10;;;;;;;;;;7378435;19;20153;-67
2023/01/29 05:30:01;;;;;;;0.10;0.10;;;;;;;;;;7376088;19;20183;-68
2023/01/29 05:32:30;;;;;;;0.10;0.10;;;;;;;;;;7379603;19;20129;-67
2023/01/29 05:35:02;;;;;;;0.10;0.10;;;;;;;;;;7377742;19;20144;-68
2023/01/29 05:37:31;;;;;;;0.10;0.10;;;;;;;;;;7375842;19;20183;-68
2023/01/29 05:39:59;;;;;;;0.10;0.10;;;;;;;;;;7378858;19;20778;-68
2023/01/29 05:42:28;;;;;;;0.10;0.10;;;;;;;;;;7378438;19;20603;-67
2023/01/29 05:44:57;;;;;;;0.10;0.10;;;;;;;;;;7378794;19;20619;-68
2023/01/29 05:47:26;;;;;;;0.10;0.10;;;;;;;;;;7379659;19;20614;-68
2023/01/29 05:49:55;;;;;;;0.10;0.10;;;;;;;;;;7377726;19;20152;-68
2023/01/29 05:52:27;;;;;;;0.10;0.10;;;;;;;;;;7373678;19;20180;-68
2023/01/29 05:54:55;;;;;;;0.10;0.10;;;;;;;;;;7378863;19;20630;-68
2023/01/29 05:57:24;;;;;;;0.10;0.10;;;;;;;;;;7375177;19;20160;-68
2023/01/29 05:59:53;;;;;;;0.15;0.15;;;;;;;;;;7377388;19;20176;-68
2023/01/29 06:02:22;;;;;;;0.10;0.10;;;;;;;;;;7378545;19;20145;-68
2023/01/29 06:04:53;;;;;;;0.10;0.10;;;;;;;;;;7378890;19;20141;-68
2023/01/29 06:07:22;;;;;;;0.10;0.10;;;;;;;;;;7379392;19;20141;-68
2023/01/29 06:09:53;;;;;;;0.10;0.10;;;;;;;;;;7376855;19;20818;-68
2023/01/29 06:12:22;;;;;;;0.10;0.10;;;;;;;;;;7377686;19;20664;-68
2023/01/29 06:14:51;;;;;;;0.10;0.10;;;;;;;;;;7374793;19;20136;-68
2023/01/29 06:17:20;;;;;;;0.10;0.10;;;;;;;;;;7374188;19;20137;-69
2023/01/29 06:19:49;;;;;;;0.10;0.10;;;;;;;;;;7377793;19;20149;-68
2023/01/29 06:22:18;;;;;;;0.10;0.10;;;;;;;;;;7378006;19;20662;-68
2023/01/29 06:24:47;;;;;;;0.10;0.10;;;;;;;;;;7378777;19;20137;-68
2023/01/29 06:27:18;;;;;;;0.10;0.10;;;;;;;;;;7373087;19;20166;-67
2023/01/29 06:29:47;;;;;;;0.10;0.10;;;;;;;;;;7375822;19;20228;-68
2023/01/29 06:32:16;;;;;;;0.10;0.10;;;;;;;;;;7372721;19;20703;-67
2023/01/29 06:34:46;;;;;;;0.10;0.10;;;;;;;;;;7376476;19;20153;-68
2023/01/29 06:37:15;;;;;;;0.10;0.10;;;;;;;;;;7373915;19;20623;-68
2023/01/29 06:39:43;;;;;;;0.10;0.10;;;;;;;;;;7379287;19;20686;-68
2023/01/29 06:42:12;;;;;;;0.10;0.10;;;;;;;;;;7374608;19;20141;-68
2023/01/29 06:44:44;;;;;;;0.10;0.10;;;;;;;;;;7378016;19;20591;-68
2023/01/29 06:47:13;;;;;;;0.10;0.10;;;;;;;;;;7377981;19;20745;-68
2023/01/29 06:49:43;;;;;;;0.10;0.10;;;;;;;;;;7388354;19;20697;-68
2023/01/29 06:52:12;;;;;;;0.10;0.10;;;;;;;;;;7384877;19;20133;-68
2023/01/29 06:54:41;;;;;;;0.10;0.10;;;;;;;;;;7385168;19;20154;-68
2023/01/29 06:57:10;;;;;;;0.10;0.10;;;;;;;;;;7380632;19;20681;-68
2023/01/29 06:59:39;;;;;;;0.10;0.10;;;;;;;;;;7383544;19;20607;-69
2023/01/29 07:02:11;;;;;;;0.10;0.10;;;;;;;;;;7382595;19;20220;-68
2023/01/29 07:04:41;;;;;;;0.10;0.10;;;;;;;;;;7383422;19;20690;-68
2023/01/29 07:07:12;;;;;;;0.10;0.10;;;;;;;;;;7382627;19;20639;-68
2023/01/29 07:09:41;;;;;;;0.10;0.10;;;;;;;;;;7382491;19;20694;-69
2023/01/29 07:12:11;;;;;;;0.10;0.10;;;;;;;;;;7380878;19;20156;-68
2023/01/29 07:14:40;;;;;;;0.10;0.10;;;;;;;;;;7381759;19;20665;-68
2023/01/29 07:17:11;;;;;;;0.10;0.10;;;;;;;;;;7381131;19;20690;-69
2023/01/29 07:19:40;;;;;;;0.10;0.10;;;;;;;;;;7383063;19;20678;-68
2023/01/29 07:22:09;;;;;;;0.10;0.10;;;;;;;;;;7383009;19;20603;-68
2023/01/29 07:24:38;;;;;;;0.13;0.13;;;;;;;;;;7380338;19;20691;-69
2023/01/29 07:27:07;;;;;;;0.10;0.10;;;;;;;;;;7381821;19;20583;-67
2023/01/29 07:29:36;;;;;;;0.17;0.17;;;;;;;;;;7379192;19;20670;-67
2023/01/29 07:32:05;;;;;;;0.10;0.10;;;;;;;;;;7380454;19;20656;-67
2023/01/29 07:34:36;;;;;;;0.10;0.10;;;;;;;;;;7381427;19;20665;-67
2023/01/29 07:37:05;;;;;;;0.10;0.10;;;;;;;;;;7381952;19;20542;-67
2023/01/29 07:39:35;;;;;;;0.10;0.10;;;;;;;;;;7381388;19;20690;-67
2023/01/29 07:42:04;;;;;;;0.13;0.13;;;;;;;;;;7383591;19;20164;-67
2023/01/29 07:44:33;;;;;;;0.10;0.10;;;;;;;;;;7380549;19;20176;-67
2023/01/29 07:47:01;;;;;;;0.10;0.10;;;;;;;;;;7381644;19;20647;-66
2023/01/29 07:49:30;;;;;;;0.10;0.10;;;;;;;;;;7377401;19;21382;-67
2023/01/29 07:52:02;;;;;;;0.10;0.10;;;;;;;;;;7380607;19;20689;-67
2023/01/29 07:54:31;;;;;;;0.10;0.10;;;;;;;;;;7376286;19;20663;-66
2023/01/29 07:57:01;;;;;;;0.17;0.17;;;;;;;;;;7378916;19;20719;-67
2023/01/29 07:59:30;;;;;;;0.10;0.10;;;;;;;;;;7379326;19;20627;-66
2023/01/29 08:01:59;;;;;;;0.10;0.10;;;;;;;;;;7382178;19;20685;-66
2023/01/29 08:04:28;;;;;;;0.10;0.10;;;;;;;;;;7380692;19;20720;-67
2023/01/29 08:06:57;;;;;;;0.20;0.20;;;;;;;;;;7384290;19;20599;-67
2023/01/29 08:09:28;;;;;;;0.10;0.10;;;;;;;;;;7380846;19;21186;-67
2023/01/29 08:11:57;;;;;;;0.10;0.10;;;;;;;;;;7382158;19;20232;-68
2023/01/29 08:14:26;;;;;;;0.20;0.20;;;;;;;;;;7377714;19;20664;-66
2023/01/29 08:16:56;;;;;;;0.10;0.10;;;;;;;;;;7380424;19;20731;-67
2023/01/29 08:19:25;;;;;;;0.10;0.10;;;;;;;;;;7377948;19;20180;-67
2023/01/29 08:21:54;;;;;;;0.10;0.10;;;;;;;;;;7380121;19;20615;-67
2023/01/29 08:24:23;;;;;;;0.10;0.10;;;;;;;;;;7381186;19;20768;-67
2023/01/29 08:26:54;;;;;;;0.10;0.10;;;;;;;;;;7380534;19;20745;-67
2023/01/29 08:29:23;;;;;;;0.10;0.10;;;;;;;;;;7380113;19;20614;-67
2023/01/29 08:31:52;;;;;;;0.10;0.10;;;;;;;;;;7382267;19;20697;-67
2023/01/29 08:34:21;;;;;;;0.10;0.10;;;;;;;;;;7379967;19;20655;-66
2023/01/29 08:36:50;;;;;;;0.10;0.10;;;;;;;;;;7381808;19;20629;-66
2023/01/29 08:39:19;;;;;;;0.10;0.10;;;;;;;;;;7380549;19;20725;-66
2023/01/29 08:41:48;;;;;;;0.10;0.10;;;;;;;;;;7382087;19;20615;-66
2023/01/29 08:44:20;;;;;;;0.10;0.10;;;;;;;;;;7380805;19;20652;-67
2023/01/29 08:46:49;;;;;;;0.10;0.10;;;;;;;;;;7383356;19;20627;-67
2023/01/29 08:49:18;;;;;;;0.10;0.10;;;;;;;;;;7379004;19;20660;-66
2023/01/29 08:51:47;;;;;;;0.10;0.10;;;;;;;;;;7380467;19;20165;-67
2023/01/29 08:54:19;;;;;;;0.10;0.10;;;;;;;;;;7378116;19;20635;-67
2023/01/29 08:56:48;;;;;;;0.10;0.10;;;;;;;;;;7382988;19;20661;-67
2023/01/29 08:59:21;;;;;;;0.10;0.10;;;;;;;;;;7377173;19;20734;-67
2023/01/29 09:01:50;;;;;;;0.10;0.10;;;;;;;;;;7380824;19;20595;-66
2023/01/29 09:04:19;;;;;;;0.10;0.10;;;;;;;;;;7377278;19;20602;-67
2023/01/29 09:06:48;;;;;;;0.10;0.10;;;;;;;;;;7380533;19;20607;-67
2023/01/29 09:09:17;;;;;;;0.10;0.10;;;;;;;;;;7374948;19;20686;-66
2023/01/29 09:11:46;;;;;;;0.10;0.10;;;;;;;;;;7377100;19;20627;-67
2023/01/29 09:14:16;;;;;;;0.10;0.10;;;;;;;;;;7376248;19;20748;-68
2023/01/29 09:16:47;;;;;;;0.10;0.10;;;;;;;;;;7378022;19;20634;-67
2023/01/29 09:19:16;;;;;;;0.10;0.10;;;;;;;;;;7377849;19;20710;-67
2023/01/29 09:21:45;;;;;;;0.10;0.10;;;;;;;;;;7380588;19;20626;-67
2023/01/29 09:24:14;;;;;;;0.10;0.10;;;;;;;;;;7377412;19;20631;-67
2023/01/29 09:26:43;;;;;;;0.10;0.10;;;;;;;;;;7378697;19;20749;-67
2023/01/29 09:29:12;;;;;;;0.10;0.10;;;;;;;;;;7379639;19;20607;-66
2023/01/29 09:31:41;;;;;;;0.10;0.10;;;;;;;;;;7380572;19;20736;-67
2023/01/29 09:34:13;;;;;;;0.10;0.10;;;;;;;;;;7381444;19;20710;-67
2023/01/29 09:36:42;;;;;;;0.10;0.10;;;;;;;;;;7378139;19;20603;-67
2023/01/29 09:39:11;;;;;;;0.10;0.10;;;;;;;;;;7379743;19;20575;-66
2023/01/29 09:41:48;;;;;;;0.13;0.13;;;;;;;;;;7379561;19;20622;-67
2023/01/29 09:44:20;;;;;;;0.10;0.10;;;;;;;;;;7377318;19;20631;-67
2023/01/29 09:46:50;;;;;;;0.10;0.10;;;;;;;;;;7380259;19;20742;-67
2023/01/29 09:49:25;;;;;;;0.10;0.10;;;;;;;;;;7376150;19;20654;-67
2023/01/29 09:51:56;;;;;;;0.10;0.10;;;;;;;;;;7378196;19;20634;-67
2023/01/29 09:54:26;;;;;;;0.10;0.10;;;;;;;;;;7375905;19;20623;-67
2023/01/29 09:56:57;;;;;;;0.10;0.10;;;;;;;;;;7379316;19;20607;-67
2023/01/29 09:59:27;;;;;;;0.10;0.10;;;;;;;;;;7375697;19;20729;-67
2023/01/29 10:02:02;;;;;;;0.10;0.10;;;;;;;;;;7379665;19;20591;-68
2023/01/29 10:04:48;;;;;;;0.10;0.10;;;;;;;;;;7375450;19;20653;-67
2023/01/29 10:07:27;;;;;;;0.10;0.10;;;;;;;;;;7377972;19;20748;-66
2023/01/29 10:10:06;;;;;;;0.10;0.10;;;;;;;;;;7377828;19;20851;-67
2023/01/29 10:12:52;;;;;;;0.10;0.10;;;;;;;;;;7378396;19;20603;-67
2023/01/29 10:15:27;;;;;;;0.10;0.10;;;;;;;;;;7375427;19;20674;-67
2023/01/29 10:18:00;;;;;;;0.10;0.10;;;;;;;;;;7377660;19;20768;-67
2023/01/29 10:20:45;;;;;;;0.10;0.10;;;;;;;;;;7375429;19;20675;-67
2023/01/29 10:23:24;;;;;;;0.10;0.10;;;;;;;;;;7382507;19;21228;-67
2023/01/29 10:25:53;;;;;;;0.10;0.10;;;;;;;;;;7386941;19;20599;-67
2023/01/29 10:28:25;;;;;;;0.10;0.10;;;;;;;;;;7386192;19;20675;-66
2023/01/29 10:30:57;;;;;;;0.10;0.10;;;;;;;;;;7384247;19;20710;-67
2023/01/29 10:33:29;;;;;;;0.10;0.10;;;;;;;;;;7385790;19;20691;-67
2023/01/29 10:36:00;;;;;;;0.10;0.10;;;;;;;;;;7384293;19;21021;-67
2023/01/29 10:38:39;;;;;;;0.10;0.10;;;;;;;;;;7384897;19;20622;-67
2023/01/29 10:41:14;;;;;;;0.10;0.10;;;;;;;;;;7383419;19;20737;-67
2023/01/29 10:43:49;;;;;;;0.10;0.10;;;;;;;;;;7386355;19;20578;-67
2023/01/29 10:46:25;;;;;;;0.10;0.10;;;;;;;;;;7384679;19;20639;-67
2023/01/29 10:49:07;;;;;;;0.10;0.10;;;;;;;;;;7385227;19;20632;-67
2023/01/29 10:51:43;;;;;;;0.10;0.10;;;;;;;;;;7382934;19;20741;-67
2023/01/29 10:54:21;;;;;;;0.17;0.17;;;;;;;;;;7382986;19;21489;-66
2023/01/29 10:56:55;;;;;;;0.10;0.10;;;;;;;;;;7384565;19;20748;-67
2023/01/29 10:59:31;;;;;;;0.10;0.10;;;;;;;;;;7381088;19;20679;-66
2023/01/29 11:02:02;;;;;;;0.10;0.10;;;;;;;;;;7386061;19;20607;-67
2023/01/29 11:04:33;;;;;;;0.10;0.10;;;;;;;;;;7381690;19;20733;-67
2023/01/29 11:07:01;;;;;;;0.10;0.10;;;;;;;;;;7385126;19;20714;-67
2023/01/29 11:09:36;;;;;;;0.10;0.10;;;;;;;;;;7380013;19;20686;-67
2023/01/29 11:12:06;;;;;;;0.10;0.10;;;;;;;;;;7386206;19;20754;-66
2023/01/29 11:14:45;;;;;;;0.10;0.10;;;;;;;;;;7380679;19;20611;-66
2023/01/29 11:17:17;;;;;;;0.10;0.10;;;;;;;;;;7382314;19;20618;-67
2023/01/29 11:19:47;;;;;;;0.10;0.10;;;;;;;;;;7380087;19;20654;-67
2023/01/29 11:22:18;;;;;;;0.10;0.10;;;;;;;;;;7382351;19;20663;-67
2023/01/29 11:25:09;;;;;;;0.10;0.10;;;;;;;;;;7381301;19;20618;-67
2023/01/29 11:27:42;;;;;;;0.10;0.10;;;;;;;;;;7381792;19;20660;-68
2023/01/29 11:30:17;;;;;;;0.10;0.10;;;;;;;;;;7382117;19;21026;-67
2023/01/29 11:32:46;;;;;;;0.10;0.10;;;;;;;;;;7384332;19;20673;-67
2023/01/29 11:35:23;;;;;;;0.10;0.10;;;;;;;;;;7382341;19;20690;-66
2023/01/29 11:37:52;;;;;;;0.10;0.10;;;;;;;;;;7383863;19;20745;-66
2023/01/29 11:40:35;;;;;;;0.10;0.10;;;;;;;;;;7380350;19;20717;-67
2023/01/29 11:43:14;;;;;;;0.10;0.10;;;;;;;;;;7384165;19;20618;-67
2023/01/29 11:45:43;;;;;;;0.10;0.10;;;;;;;;;;7378126;19;20717;-66
2023/01/29 11:48:17;;;;;;;0.10;0.10;;;;;;;;;;7381217;19;20614;-69
2023/01/29 11:50:46;;;;;;;0.10;0.10;;;;;;;;;;7378674;19;20702;-68
2023/01/29 11:53:27;;;;;;;0.10;0.10;;;;;;;;;;7379487;19;20729;-67
2023/01/29 11:55:59;;;;;;;0.10;0.10;;;;;;;;;;7380905;19;20634;-69
2023/01/29 11:58:29;;;;;;;0.10;0.10;;;;;;;;;;7375471;19;20686;-68
2023/01/29 12:01:00;;;;;;;0.10;0.10;;;;;;;;;;7379831;19;20732;-69
2023/01/29 12:03:34;;;;;;;0.10;0.10;;;;;;;;;;7379035;19;20682;-69
2023/01/29 12:06:05;;;;;;;0.00;0.00;;;;;;;;;;7380442;19;20704;-69
2023/01/29 12:08:36;;;;;;;0.10;0.10;;;;;;;;;;7380108;19;20710;-67
2023/01/29 12:11:15;;;;;;;0.10;0.10;;;;;;;;;;7379182;19;20734;-67
2023/01/29 12:13:44;;;;;;;0.10;0.10;;;;;;;;;;7381524;19;20710;-68
2023/01/29 12:16:22;;;;;;;0.10;0.10;;;;;;;;;;7380533;19;20721;-68
2023/01/29 12:18:55;;;;;;;0.10;0.10;;;;;;;;;;7378735;19;20705;-68
2023/01/29 12:21:29;;;;;;;0.10;0.10;;;;;;;;;;7378202;19;20614;-68
2023/01/29 12:24:01;;;;;;;0.10;0.10;;;;;;;;;;7382746;19;20653;-68
2023/01/29 12:26:36;;;;;;;0.10;0.10;;;;;;;;;;7380756;19;20607;-68
2023/01/29 12:29:23;;;;;;;0.10;0.10;;;;;;;;;;7382552;19;20673;-68
2023/01/29 12:31:54;;;;;;;0.10;0.10;;;;;;;;;;7380480;19;20599;-68
2023/01/29 12:34:27;;;;;;;0.10;0.10;;;;;;;;;;7378697;19;20673;-68
2023/01/29 12:36:58;;;;;;;0.10;0.10;;;;;;;;;;7380572;19;20660;-68
2023/01/29 12:39:27;;;;;;;0.10;0.10;;;;;;;;;;7378411;19;20801;-68
2023/01/29 12:42:02;;;;;;;0.10;0.10;;;;;;;;;;7383027;19;20615;-68
2023/01/29 12:44:35;;;;;;;0.00;0.00;;;;;;;;;;7378919;19;20603;-68
2023/01/29 12:47:09;;;;;;;0.10;0.10;;;;;;;;;;7380631;19;20591;-68
2023/01/29 12:49:40;;;;;;;0.10;0.10;;;;;;;;;;7377512;19;20662;-67
2023/01/29 12:52:13;;;;;;;0.10;0.10;;;;;;;;;;7379584;19;20663;-68
2023/01/29 12:54:44;;;;;;;0.10;0.10;;;;;;;;;;7379942;19;20602;-67
2023/01/29 12:57:21;;;;;;;0.10;0.10;;;;;;;;;;7377524;19;21009;-69
2023/01/29 12:59:52;;;;;;;0.10;0.10;;;;;;;;;;7372392;19;20710;-68
2023/01/29 13:02:25;;;;;;;0.10;0.10;;;;;;;;;;7380516;19;20651;-68
2023/01/29 13:04:58;;;;;;;0.10;0.10;;;;;;;;;;7378607;19;20713;-68
2023/01/29 13:07:28;;;;;;;0.10;0.10;;;;;;;;;;7380366;19;20647;-67
2023/01/29 13:09:59;;;;;;;0.10;0.10;;;;;;;;;;7380158;19;20702;-69
2023/01/29 13:12:31;;;;;;;0.10;0.10;;;;;;;;;;7380408;19;20595;-68
2023/01/29 13:15:02;;;;;;;0.10;0.10;;;;;;;;;;7381030;19;20650;-68
2023/01/29 13:17:35;;;;;;;0.10;0.10;;;;;;;;;;7377882;19;20662;-68
2023/01/29 13:20:07;;;;;;;0.10;0.10;;;;;;;;;;7377762;19;20725;-68
2023/01/29 13:22:38;;;;;;;0.10;0.10;;;;;;;;;;7380175;19;20615;-68
2023/01/29 13:25:10;;;;;;;0.10;0.10;;;;;;;;;;7380399;19;20698;-68
2023/01/29 13:27:41;;;;;;;0.10;0.10;;;;;;;;;;7379003;19;20639;-68
2023/01/29 13:30:25;;;;;;;0.10;0.10;;;;;;;;;;7377292;19;21299;-68
2023/01/29 13:33:07;;;;;;;0.10;0.10;;;;;;;;;;7378000;19;20765;-68
2023/01/29 13:35:36;;;;;;;0.10;0.10;;;;;;;;;;7379812;19;20668;-67
2023/01/29 13:38:07;;;;;;;0.10;0.10;;;;;;;;;;7380113;19;20657;-68
2023/01/29 13:40:37;;;;;;;0.10;0.10;;;;;;;;;;7375407;19;20737;-68
2023/01/29 13:43:08;;;;;;;0.10;0.10;;;;;;;;;;7379918;19;20638;-68
2023/01/29 13:45:44;;;;;;;0.10;0.10;;;;;;;;;;7377569;19;21435;-68
2023/01/29 13:48:21;;;;;;;0.10;0.10;;;;;;;;;;7380014;19;20655;-68
2023/01/29 13:50:52;;;;;;;0.10;0.10;;;;;;;;;;7376964;19;20725;-69
2023/01/29 13:53:23;;;;;;;0.10;0.10;;;;;;;;;;7380436;19;20587;-67
2023/01/29 13:55:52;;;;;;;0.10;0.10;;;;;;;;;;7376913;19;20660;-68
2023/01/29 13:58:45;;;;;;;0.10;0.10;;;;;;;;;;7390606;19;20675;-68
2023/01/29 14:01:14;;;;;;;0.10;0.10;;;;;;;;;;7389809;19;20678;-68
2023/01/29 14:03:46;;;;;;;0.10;0.10;;;;;;;;;;7391703;19;20701;-68
2023/01/29 14:06:35;;;;;;;0.10;0.10;;;;;;;;;;7391327;19;20679;-68
2023/01/29 14:09:04;;;;;;;0.10;0.10;;;;;;;;;;7392171;19;20638;-68
2023/01/29 14:11:37;;;;;;;0.10;0.10;;;;;;;;;;7392480;19;20583;-68
2023/01/29 14:14:29;;;;;;;0.10;0.10;;;;;;;;;;7394261;19;20598;-69
2023/01/29 14:17:03;;;;;;;0.10;0.10;;;;;;;;;;7391219;19;20738;-68
2023/01/29 14:19:32;;;;;;;0.10;0.10;;;;;;;;;;7391146;19;20638;-67
2023/01/29 14:22:01;;;;;;;0.10;0.10;;;;;;;;;;7391378;19;20653;-68
2023/01/29 14:24:31;;;;;;;0.10;0.10;;;;;;;;;;7391320;19;20749;-69
2023/01/29 14:27:02;;;;;;;0.10;0.10;;;;;;;;;;7391197;19;20627;-68
2023/01/29 14:29:38;;;;;;;0.10;0.10;;;;;;;;;;7392459;19;20660;-68
2023/01/29 14:32:14;;;;;;;0.10;0.10;;;;;;;;;;7393246;19;20602;-68
2023/01/29 14:34:44;;;;;;;0.10;0.10;;;;;;;;;;7390980;19;20745;-68
2023/01/29 14:37:22;;;;;;;0.10;0.10;;;;;;;;;;7393690;19;20706;-68
2023/01/29 14:39:51;;;;;;;0.10;0.10;;;;;;;;;;7390211;19;20646;-68
2023/01/29 14:42:24;;;;;;;0.10;0.10;;;;;;;;;;7393003;19;20603;-69
2023/01/29 14:45:11;;;;;;;0.10;0.10;;;;;;;;;;7392308;19;20714;-68
2023/01/29 14:47:55;;;;;;;0.10;0.10;;;;;;;;;;7390576;19;20697;-68
2023/01/29 14:50:41;;;;;;;0.10;0.10;;;;;;;;;;7388466;19;20670;-68
2023/01/29 14:53:13;;;;;;;0.10;0.10;;;;;;;;;;7391859;19;20672;-68
2023/01/29 14:55:44;;;;;;;0.10;0.10;;;;;;;;;;7392175;19;20661;-68
2023/01/29 14:58:15;;;;;;;0.10;0.10;;;;;;;;;;7391466;19;20663;-68
2023/01/29 15:00:48;;;;;;;0.10;0.10;;;;;;;;;;7387771;19;20667;-68
2023/01/29 15:03:21;;;;;;;0.10;0.10;;;;;;;;;;7391798;19;20660;-67
2023/01/29 15:05:51;;;;;;;0.10;0.10;;;;;;;;;;7391362;19;20595;-68
2023/01/29 15:08:28;;;;;;;0.10;0.10;;;;;;;;;;7387606;19;20638;-67
2023/01/29 15:13:44;;;;;;;0.10;0.10;;;;;;;;;;7385508;19;20668;-68
2023/01/29 15:16:18;;;;;;;0.10;0.10;;;;;;;;;;7385606;19;20678;-68
2023/01/29 15:18:48;;;;;;;0.10;0.10;;;;;;;;;;7382888;19;20614;-68
2023/01/29 15:21:18;;;;;;;0.10;0.10;;;;;;;;;;7382417;19;20623;-68
2023/01/29 15:23:47;;;;;;;0.10;0.10;;;;;;;;;;7385419;19;20595;-68
2023/01/29 15:26:20;;;;;;;0.10;0.10;;;;;;;;;;7385162;19;20607;-68
2023/01/29 15:28:56;;;;;;;0.10;0.10;;;;;;;;;;7384758;19;20713;-68
2023/01/29 15:31:29;;;;;;;0.10;0.10;;;;;;;;;;7383935;19;20789;-68
2023/01/29 15:34:01;;;;;;;0.10;0.10;;;;;;;;;;7381658;19;20745;-68
2023/01/29 15:36:31;;;;;;;0.10;0.10;;;;;;;;;;7385499;19;20603;-68
2023/01/29 15:39:24;;;;;;;0.10;0.10;;;;;;;;;;7383118;19;20607;-68
2023/01/29 15:41:53;;;;;;;0.10;0.10;;;;;;;;;;7383181;19;20673;-68
2023/01/29 15:44:25;;;;;;;0.10;0.10;;;;;;;;;;7383976;19;20603;-68